Flight Track Log - Related Links

Times and Time Zones

All times are in EDT time to prevent confusion due to time zone crossing. See the DAL1979 flight status page for this flight to view local times or setup timezone preferences in your user account.

Time Position Orientation Groundspeed Altitude Reporting Facility
EDT Latitude Longitude Course Direction KTS MPH feet Rate Location/Type
Sat 03:57:27 PM 28.4010 -81.2970 156° South 184 212 1,000  Level FlightAware ADS-B
Sat 03:57:42 PM 28.3900 -81.3040 209° Southwest 196 226 1,400 1,350 Climbing FlightAware ADS-B
Sat 03:58:07 PM 28.3700 -81.3220 218° Southwest 227 261 1,900 1,200 Climbing FlightAware ADS-B
Sat 03:58:22 PM 28.3620 -81.3400 243° Southwest 246 283 2,200 1,650 Climbing FlightAware ADS-B
Sat 03:58:47 PM 28.3590 -81.3730 264° West 265 305 3,000 2,100 Climbing FlightAware ADS-B
Sat 03:59:02 PM 28.3570 -81.3910 263° West 270 311 3,600 2,933 Climbing FlightAware ADS-B
Sat 03:59:32 PM 28.3550 -81.4360 267° West 269 310 5,200 2,900 Climbing FlightAware ADS-B
Sat 04:00:02 PM 28.3620 -81.4800 280° West 279 321 6,500 2,727 Climbing FlightAware ADS-B
Sat 04:00:27 PM 28.3730 -81.5130 291° West 282 325 7,700 2,836 Climbing FlightAware ADS-B
Sat 04:00:57 PM 28.3920 -81.5510 300° West 282 325 9,100 2,259 Climbing FlightAware ADS-B
Sat 04:01:52 PM 28.3940 -81.6380 272° West 315 362 10,900 1,600 Climbing FlightAware ADS-B
Sat 04:02:27 PM 28.3960 -81.6970 272° West 348 400 11,500 1,412 Climbing FlightAware ADS-B
Sat 04:03:17 PM 28.3880 -81.7920 265° West 374 430 12,900 2,000 Climbing FlightAware ADS-B
Sat 04:03:57 PM 28.3790 -81.8720 263° West 381 438 14,500 2,175 Climbing FlightAware ADS-B
Sat 04:04:37 PM 28.3710 -81.9500 263° West 390 449 15,800 1,906 Climbing FlightAware ADS-B
Sat 04:05:22 PM 28.3620 -82.0460 264° West 400 460 17,200 1,906 Climbing FlightAware ADS-B
Sat 04:06:02 PM 28.3540 -82.1270 264° West 405 466 18,500 1,835 Climbing FlightAware ADS-B
Sat 04:06:47 PM 28.3450 -82.2250 264° West 413 475 19,800 1,722 Climbing FlightAware ADS-B
Sat 04:07:57 PM 28.3310 -82.3780 264° West 423 487 21,800 1,584 Climbing FlightAware ADS-B
Sat 04:08:52 PM 28.3450 -82.5000 277° West 426 490 23,100 1,371 Climbing FlightAware ADS-B
Sat 04:09:07 PM 28.3660 -82.5290 309° West 427 491 23,400 1,418 Climbing FlightAware ADS-B
Sat 04:09:47 PM 28.4260 -82.5790 324° Northwest 430 495 24,400 1,129 Climbing FlightAware ADS-B
Sat 04:10:32 PM 28.5040 -82.6380 326° Northwest 434 499 25,000 818 Climbing FlightAware ADS-B
Sat 04:11:37 PM 28.6100 -82.7220 325° Northwest 434 499 25,900 927 Climbing FlightAware ADS-B
Sat 04:12:22 PM 28.6770 -82.7740 326° Northwest 444 511 26,700 1,067 Climbing FlightAware ADS-B
Sat 04:13:07 PM 28.7580 -82.8380 325° Northwest 449 517 27,500 1,059 Climbing FlightAware ADS-B
Sat 04:13:47 PM 28.8270 -82.8920 326° Northwest 453 521 28,200 1,129 Climbing FlightAware ADS-B
Sat 04:14:32 PM 28.9040 -82.9530 325° Northwest 453 521 29,100 1,200 Climbing FlightAware ADS-B
Sat 04:15:07 PM 28.9630 -83.0010 325° Northwest 450 518 29,800 1,129 Climbing FlightAware ADS-B
Sat 04:15:57 PM 29.0510 -83.0700 326° Northwest 451 519 30,700 1,067 Climbing FlightAware ADS-B
Sat 04:16:37 PM 29.1180 -83.1230 325° Northwest 452 520 31,400 918 Climbing FlightAware ADS-B
Sat 04:17:22 PM 29.1970 -83.1860 325° Northwest 452 520 32,000 424 Climbing FlightAware ADS-B
Sat 04:18:02 PM 29.2650 -83.2400 325° Northwest 451 519 32,000  Level FlightAware ADS-B
Sat 04:18:42 PM 29.3340 -83.2950 325° Northwest 453 521 32,000  Level FlightAware ADS-B
Sat 04:19:27 PM 29.4130 -83.3510 328° Northwest 445 512 32,000  Level FlightAware ADS-B
Sat 04:19:57 PM 29.4720 -83.3860 333° Northwest 452 520 32,000  Level FlightAware ADS-B
Sat 04:20:52 PM 29.5750 -83.4450 334° Northwest 452 520 32,000  Level FlightAware ADS-B
Sat 04:21:27 PM 29.6360 -83.4800 333° Northwest 453 521 32,000  Level FlightAware ADS-B
Sat 04:22:12 PM 29.7250 -83.5320 333° Northwest 453 521 32,000  Level FlightAware ADS-B
Sat 04:23:07 PM 29.8210 -83.5880 333° Northwest 453 521 32,000  Level FlightAware ADS-B
Sat 04:24:02 PM 29.9310 -83.6520 333° Northwest 453 521 32,000  Level FlightAware ADS-B
Sat 04:24:47 PM 30.0180 -83.7020 334° Northwest 32,000  Level FlightAware ADS-B
Sat 04:25:42 PM 30.1120 -83.7590 332° Northwest 449 517 32,000  Level FlightAware ADS-B
Sat 04:26:22 PM 30.1740 -83.7970 332° Northwest 449 517 32,000  Level FlightAware ADS-B
Sat 04:27:02 PM 30.2370 -83.8350 332° Northwest 449 517 32,000  Level FlightAware ADS-B
Sat 04:27:42 PM 30.2990 -83.8740 331° Northwest 449 517 32,000  Level FlightAware ADS-B
Sat 04:28:32 PM 30.3770 -83.9220 332° Northwest 449 517 32,000  Level FlightAware ADS-B
Sat 04:29:12 PM 30.4390 -83.9600 332° Northwest 449 517 32,000  Level FlightAware ADS-B
Sat 04:29:52 PM 30.5020 -83.9990 332° Northwest 449 517 32,000  Level FlightAware ADS-B
Sat 04:30:32 PM 30.5640 -84.0370 332° Northwest 449 517 32,000  Level FlightAware ADS-B
Sat 04:31:22 PM 30.6420 -84.0850 332° Northwest 449 517 32,000  Level FlightAware ADS-B
Sat 04:32:02 PM 30.7040 -84.1240 332° Northwest 449 517 32,000  Level FlightAware ADS-B
Sat 04:32:42 PM 30.7670 -84.1620 333° Northwest 449 517 32,000  Level FlightAware ADS-B
Sat 04:33:22 PM 30.8290 -84.2010 332° Northwest 449 517 32,000  Level FlightAware ADS-B
Sat 04:34:02 PM 30.8910 -84.2400 332° Northwest 449 517 32,000  Level FlightAware ADS-B
Sat 04:34:42 PM 30.9540 -84.2780 333° Northwest 449 517 32,000  Level FlightAware ADS-B
Sat 04:39:57 PM 31.7420 -84.7260 334° Northwest 462 532 32,000  Level FlightAware ADS-B
Sat 04:40:42 PM 31.8200 -84.7750 332° Northwest 462 532 32,000  Level FlightAware ADS-B
Sat 04:41:22 PM 31.8840 -84.8150 332° Northwest 462 532 32,000  Level FlightAware ADS-B
Sat 04:42:02 PM 31.9480 -84.8550 332° Northwest 462 532 32,000  Level FlightAware ADS-B
Sat 04:42:42 PM 32.0120 -84.8960 331° Northwest 462 532 32,000  Level FlightAware ADS-B
Sat 04:43:22 PM 32.0760 -84.9360 332° Northwest 462 532 32,000  Level FlightAware ADS-B
Sat 04:44:02 PM 32.1410 -84.9760 332° Northwest 462 532 32,000  Level FlightAware ADS-B
Sat 04:44:52 PM 32.2210 -85.0270 332° Northwest 462 532 32,000  Level FlightAware ADS-B
Sat 04:45:32 PM 32.2850 -85.0670 332° Northwest 462 532 32,000  Level FlightAware ADS-B
Sat 04:46:12 PM 32.3490 -85.1070 332° Northwest 462 532 32,000  Level FlightAware ADS-B
Sat 04:46:57 PM 32.5330 -85.2090 335° Northwest 456 525 32,000  Level FlightAware ADS-B
Sat 04:47:32 PM 32.5950 -85.2480 332° Northwest 455 524 32,000  Level FlightAware ADS-B
Sat 04:48:17 PM 32.6810 -85.3000 333° Northwest 454 522 32,000  Level FlightAware ADS-B
Sat 04:49:02 PM 32.7610 -85.3500 332° Northwest 453 521 32,000  Level FlightAware ADS-B
Sat 04:49:47 PM 32.8520 -85.4060 333° Northwest 453 521 32,000 212 Level FlightAware ADS-B
Sat 04:50:27 PM 32.9260 -85.4520 332° Northwest 453 521 32,300 918 Climbing FlightAware ADS-B
Sat 04:51:12 PM 33.0090 -85.5030 333° Northwest 446 513 33,300 1,200 Climbing FlightAware ADS-B
Sat 04:51:47 PM 33.0740 -85.5440 332° Northwest 445 512 33,900 525 Climbing FlightAware ADS-B
Sat 04:52:32 PM 33.1560 -85.5950 332° Northwest 447 514 34,000 67 Climbing FlightAware ADS-B
Sat 04:53:17 PM 33.2410 -85.6480 332° Northwest 450 518 34,000  Level FlightAware ADS-B
Sat 04:53:57 PM 33.3120 -85.6920 333° Northwest 448 516 34,000  Level FlightAware ADS-B
Sat 04:54:37 PM 33.3880 -85.7400 332° Northwest 447 514 34,000  Level FlightAware ADS-B
Sat 04:55:22 PM 33.4680 -85.7900 332° Northwest 445 512 34,000  Level FlightAware ADS-B
Sat 04:55:42 PM 33.5088 -85.8156 332° Northwest 444 511 34,000  Level FlightAware ADS-B
Sat 04:56:47 PM 33.6260 -85.8890 332° Northwest 441 507 34,000  Level FlightAware ADS-B
Sat 04:57:27 PM 33.6940 -85.9320 332° Northwest 439 505 34,000  Level FlightAware ADS-B
Sat 04:57:46 PM 33.7331 -85.9567 332° Northwest 440 506 34,000  Level FlightAware ADS-B
Sat 04:58:26 PM 33.8061 -86.0029 332° Northwest 437 503 34,000  Level FlightAware ADS-B
Sat 04:59:21 PM 33.9041 -86.0650 332° Northwest 437 503 34,000  Level FlightAware ADS-B
Sat 04:59:54 PM 33.9629 -86.1023 332° Northwest 437 503 34,000  Level FlightAware ADS-B
Sat 05:00:25 PM 34.0176 -86.1370 332° Northwest 437 503 34,000  Level FlightAware ADS-B
Sat 05:01:09 PM 34.0982 -86.1883 332° Northwest 438 504 34,000  Level FlightAware ADS-B
Sat 05:02:03 PM 34.1945 -86.2497 332° Northwest 438 504 34,000  Level FlightAware ADS-B
Sat 05:02:34 PM 34.2498 -86.2852 332° Northwest 439 505 34,000  Level FlightAware ADS-B
Sat 05:03:08 PM 34.3106 -86.3240 332° Northwest 439 505 34,000  Level FlightAware ADS-B
Sat 05:03:41 PM 34.3699 -86.3619 332° Northwest 441 507 34,000  Level FlightAware ADS-B
Sat 05:04:52 PM 34.4810 -86.4350 332° Northwest 440 506 34,000  Level FlightAware ADS-B
Sat 05:05:01 PM 34.5136 -86.4543 334° Northwest 441 507 34,000  Level FlightAware ADS-B
Sat 05:05:37 PM 34.5780 -86.4960 332° Northwest 441 507 34,000  Level FlightAware ADS-B
Sat 05:05:56 PM 34.6145 -86.5195 332° Northwest 441 507 34,000  Level FlightAware ADS-B
Sat 05:06:27 PM 34.6705 -86.5556 332° Northwest 443 510 34,000  Level FlightAware ADS-B
Sat 05:06:58 PM 34.7261 -86.5915 332° Northwest 443 510 34,000  Level FlightAware ADS-B
Sat 05:07:30 PM 34.7838 -86.6290 332° Northwest 442 509 34,000  Level FlightAware ADS-B
Sat 05:08:08 PM 34.8528 -86.6739 332° Northwest 443 510 34,000  Level FlightAware ADS-B
Sat 05:08:45 PM 34.9200 -86.7176 332° Northwest 444 511 34,000  Level FlightAware ADS-B
Sat 05:09:18 PM 34.9793 -86.7562 332° Northwest 444 511 34,000  Level FlightAware ADS-B
Sat 05:09:49 PM 35.0359 -86.7933 332° Northwest 445 512 34,000  Level FlightAware ADS-B
Sat 05:10:19 PM 35.0911 -86.8292 332° Northwest 445 512 34,000  Level FlightAware ADS-B
Sat 05:10:50 PM 35.1460 -86.8653 332° Northwest 445 512 34,000  Level FlightAware ADS-B
Sat 05:11:20 PM 35.2011 -86.9013 332° Northwest 445 512 34,000  Level FlightAware ADS-B
Sat 05:11:51 PM 35.2566 -86.9379 332° Northwest 445 512 34,000  Level FlightAware ADS-B
Sat 05:12:21 PM 35.3120 -86.9742 332° Northwest 444 511 34,000  Level FlightAware ADS-B
Sat 05:12:54 PM 35.3721 -87.0139 332° Northwest 444 511 34,000  Level FlightAware ADS-B
Sat 05:13:45 PM 35.4636 -87.0746 332° Northwest 442 509 34,000  Level FlightAware ADS-B
Sat 05:14:23 PM 35.5317 -87.1196 332° Northwest 441 507 34,000  Level FlightAware ADS-B
Sat 05:15:22 PM 35.6340 -87.1870 332° Northwest 441 507 34,000  Level FlightAware ADS-B
Sat 05:16:07 PM 35.7160 -87.2420 331° Northwest 439 505 34,000  Level FlightAware ADS-B
Sat 05:16:47 PM 35.7880 -87.2910 331° Northwest 439 505 34,000  Level FlightAware ADS-B
Sat 05:17:32 PM 35.8670 -87.3430 332° Northwest 438 504 34,000  Level FlightAware ADS-B
Sat 05:18:12 PM 35.9390 -87.3920 331° Northwest 438 504 34,000  Level FlightAware ADS-B
Sat 05:18:57 PM 36.0210 -87.4470 332° Northwest 439 505 34,000  Level FlightAware ADS-B
Sat 05:19:37 PM 36.0930 -87.4950 332° Northwest 440 506 34,000  Level FlightAware ADS-B
Sat 05:20:22 PM 36.1700 -87.5470 331° Northwest 440 506 34,000  Level FlightAware ADS-B
Sat 05:21:02 PM 36.2420 -87.5970 331° Northwest 440 506 34,000  Level FlightAware ADS-B
Sat 05:21:42 PM 36.3140 -87.6450 332° Northwest 440 506 34,000  Level FlightAware ADS-B
Sat 05:22:27 PM 36.3940 -87.7000 331° Northwest 439 505 34,000  Level FlightAware ADS-B
Sat 05:23:07 PM 36.4670 -87.7500 331° Northwest 438 504 34,000  Level FlightAware ADS-B
Sat 05:23:52 PM 36.5430 -87.8020 331° Northwest 439 505 34,000  Level FlightAware ADS-B
Sat 05:24:32 PM 36.6090 -87.8490 330° Northwest 439 505 34,000  Level FlightAware ADS-B
Sat 05:25:12 PM 36.6840 -87.8990 332° Northwest 439 505 34,000  Level FlightAware ADS-B
Sat 05:25:52 PM 36.7570 -87.9500 331° Northwest 440 506 34,000  Level FlightAware ADS-B
Sat 05:26:37 PM 36.8420 -88.0080 331° Northwest 442 509 34,000  Level FlightAware ADS-B
Sat 05:27:17 PM 36.9100 -88.0560 331° Northwest 443 510 34,000  Level FlightAware ADS-B
Sat 05:28:02 PM 36.9900 -88.1120 331° Northwest 443 510 34,000  Level FlightAware ADS-B
Sat 05:28:42 PM 37.0630 -88.1630 331° Northwest 443 510 34,000  Level FlightAware ADS-B
Sat 05:29:37 PM 37.1580 -88.2300 331° Northwest 445 512 34,000  Level FlightAware ADS-B
Sat 05:30:22 PM 37.2440 -88.2900 331° Northwest 446 513 34,000  Level FlightAware ADS-B
Sat 05:31:02 PM 37.3170 -88.3420 330° Northwest 446 513 34,000  Level FlightAware ADS-B
Sat 05:31:42 PM 37.3900 -88.3930 331° Northwest 446 513 34,000  Level FlightAware ADS-B
Sat 05:32:27 PM 37.4690 -88.4490 331° Northwest 447 514 34,000  Level FlightAware ADS-B
Sat 05:33:07 PM 37.5400 -88.5000 330° Northwest 448 516 34,000  Level FlightAware ADS-B
Sat 05:33:52 PM 37.6230 -88.5600 330° Northwest 448 516 34,000  Level FlightAware ADS-B
Sat 05:34:32 PM 37.6960 -88.6110 331° Northwest 448 516 34,000  Level FlightAware ADS-B
Sat 05:35:17 PM 37.7720 -88.6670 330° Northwest 449 517 34,000  Level FlightAware ADS-B
Sat 05:35:57 PM 37.8480 -88.7210 331° Northwest 448 516 34,000  Level FlightAware ADS-B
Sat 05:36:42 PM 37.9300 -88.7800 330° Northwest 448 516 34,000  Level FlightAware ADS-B
Sat 05:37:22 PM 38.0030 -88.8330 330° Northwest 447 514 34,000  Level FlightAware ADS-B
Sat 05:38:02 PM 38.0730 -88.8840 330° Northwest 448 516 34,000  Level FlightAware ADS-B
Sat 05:38:42 PM 38.1460 -88.9370 330° Northwest 448 516 34,000  Level FlightAware ADS-B
Sat 05:39:27 PM 38.2270 -88.9960 330° Northwest 448 516 34,000  Level FlightAware ADS-B
Sat 05:40:07 PM 38.2950 -89.0460 330° Northwest 448 516 34,000  Level FlightAware ADS-B
Sat 05:40:47 PM 38.3660 -89.0990 330° Northwest 447 514 34,000  Level FlightAware ADS-B
Sat 05:41:32 PM 38.4510 -89.1610 330° Northwest 448 516 34,000  Level FlightAware ADS-B
Sat 05:42:17 PM 38.5300 -89.2190 330° Northwest 447 514 34,000  Level FlightAware ADS-B
Sat 05:42:57 PM 38.6040 -89.2740 330° Northwest 449 517 34,000  Level FlightAware ADS-B
Sat 05:43:37 PM 38.6710 -89.3250 329° Northwest 449 517 34,000  Level FlightAware ADS-B
Sat 05:44:22 PM 38.7570 -89.3880 330° Northwest 450 518 34,000  Level FlightAware ADS-B
Sat 05:45:02 PM 38.8300 -89.4430 330° Northwest 451 519 34,000  Level FlightAware ADS-B
Sat 05:45:47 PM 38.9100 -89.5030 330° Northwest 451 519 34,000  Level FlightAware ADS-B
Sat 05:46:27 PM 38.9820 -89.5570 330° Northwest 451 519 34,000  Level FlightAware ADS-B
Sat 05:47:12 PM 39.0640 -89.6190 330° Northwest 452 520 34,000  Level FlightAware ADS-B
Sat 05:47:52 PM 39.1300 -89.6690 330° Northwest 452 520 34,000  Level FlightAware ADS-B
Sat 05:48:32 PM 39.2040 -89.7250 330° Northwest 452 520 34,000  Level FlightAware ADS-B
Sat 05:49:12 PM 39.2800 -89.7830 329° Northwest 452 520 34,000  Level FlightAware ADS-B
Sat 05:49:57 PM 39.3610 -89.8440 330° Northwest 454 522 34,000  Level FlightAware ADS-B
Sat 05:50:42 PM 39.4420 -89.9060 329° Northwest 455 524 34,000  Level FlightAware ADS-B
Sat 05:51:22 PM 39.5100 -89.9590 329° Northwest 455 524 34,000  Level FlightAware ADS-B
Sat 05:52:02 PM 39.5900 -90.0200 330° Northwest 456 525 34,000  Level FlightAware ADS-B
Sat 05:52:47 PM 39.6680 -90.0790 330° Northwest 456 525 34,000  Level FlightAware ADS-B
Sat 05:53:27 PM 39.7420 -90.1370 329° Northwest 457 526 34,000  Level FlightAware ADS-B
Sat 05:54:12 PM 39.8270 -90.2020 330° Northwest 458 527 34,000  Level FlightAware ADS-B
Sat 05:54:52 PM 39.8930 -90.2540 329° Northwest 460 529 34,000  Level FlightAware ADS-B
Sat 05:55:32 PM 39.9730 -90.3150 330° Northwest 461 531 34,000  Level FlightAware ADS-B
Sat 05:56:17 PM 40.0490 -90.3750 329° Northwest 461 531 34,000  Level FlightAware ADS-B
Sat 05:56:57 PM 40.1270 -90.4350 330° Northwest 462 532 34,000  Level FlightAware ADS-B
Sat 05:57:42 PM 40.2100 -90.5010 329° Northwest 462 532 34,000  Level FlightAware ADS-B
Sat 05:58:22 PM 40.2810 -90.5560 329° Northwest 462 532 34,000  Level FlightAware ADS-B
Sat 05:58:57 PM 40.3400 -90.6030 329° Northwest 462 532 34,000  Level FlightAware ADS-B
Sat 05:59:47 PM 40.4400 -90.6810 329° Northwest 466 536 34,000  Level FlightAware ADS-B
Sat 06:00:27 PM 40.5130 -90.7390 329° Northwest 467 537 34,000  Level FlightAware ADS-B
Sat 06:01:12 PM 40.5960 -90.8050 329° Northwest 468 539 34,000  Level FlightAware ADS-B
Sat 06:01:52 PM 40.6720 -90.8650 329° Northwest 469 540 34,000  Level FlightAware ADS-B
Sat 06:02:32 PM 40.7430 -90.9220 329° Northwest 471 542 34,000  Level FlightAware ADS-B
Sat 06:03:27 PM 40.8410 -91.0010 329° Northwest 472 543 34,000  Level FlightAware ADS-B
Sat 06:04:12 PM 40.9310 -91.0710 330° Northwest 473 544 34,000  Level FlightAware ADS-B
Sat 06:04:52 PM 41.0050 -91.1310 329° Northwest 474 545 34,000  Level FlightAware ADS-B
Sat 06:06:02 PM 41.1330 -91.2350 329° Northwest 475 547 34,000  Level FlightAware ADS-B
Sat 06:06:47 PM 41.2250 -91.3070 330° Northwest 476 548 34,000  Level FlightAware ADS-B
Sat 06:07:27 PM 41.3000 -91.3680 329° Northwest 476 548 34,000  Level FlightAware ADS-B
Sat 06:08:07 PM 41.3730 -91.4270 329° Northwest 475 547 34,000  Level FlightAware ADS-B
Sat 06:08:52 PM 41.4600 -91.4980 329° Northwest 475 547 34,000  Level FlightAware ADS-B
Sat 06:09:32 PM 41.5330 -91.5570 329° Northwest 474 545 34,000  Level FlightAware ADS-B
Sat 06:10:17 PM 41.6200 -91.6280 329° Northwest 474 545 34,000  Level FlightAware ADS-B
Sat 06:10:52 PM 41.6840 -91.6800 329° Northwest 474 545 34,000  Level FlightAware ADS-B
Sat 06:11:42 PM 41.7810 -91.7600 328° Northwest 474 545 34,000  Level FlightAware ADS-B
Sat 06:12:17 PM 41.8440 -91.8120 328° Northwest 474 545 34,000  Level FlightAware ADS-B
Sat 06:13:02 PM 41.9240 -91.8770 329° Northwest 474 545 34,000  Level FlightAware ADS-B
Sat 06:13:47 PM 42.0090 -91.9480 328° Northwest 474 545 34,000  Level FlightAware ADS-B
Sat 06:14:27 PM 42.0820 -92.0080 329° Northwest 474 545 34,000  Level FlightAware ADS-B
Sat 06:15:12 PM 42.1700 -92.0810 328° Northwest 474 545 34,000  Level FlightAware ADS-B
Sat 06:15:52 PM 42.2430 -92.1420 328° Northwest 474 545 34,000  Level FlightAware ADS-B
Sat 06:16:32 PM 42.3230 -92.2090 328° Northwest 475 547 34,000  Level FlightAware ADS-B
Sat 06:17:17 PM 42.4040 -92.2760 329° Northwest 476 548 34,000  Level FlightAware ADS-B
Sat 06:17:57 PM 42.4800 -92.3400 328° Northwest 476 548 34,000  Level FlightAware ADS-B
Sat 06:18:37 PM 42.5530 -92.4060 326° Northwest 474 545 34,000  Level FlightAware ADS-B
Sat 06:19:22 PM 42.6360 -92.4780 327° Northwest 475 547 34,000  Level FlightAware ADS-B
Sat 06:20:02 PM 42.7040 -92.5390 327° Northwest 474 545 34,000  Level FlightAware ADS-B
Sat 06:20:47 PM 42.7910 -92.6180 326° Northwest 475 547 34,000  Level FlightAware ADS-B
Sat 06:21:27 PM 42.8680 -92.6760 331° Northwest 480 552 34,000 -141 Level FlightAware ADS-B
Sat 06:22:12 PM 42.9660 -92.7190 342° North 483 556 33,800 -1,271 Descending FlightAware ADS-B
Sat 06:22:52 PM 43.0500 -92.7510 344° North 486 559 32,200 -2,775 Descending FlightAware ADS-B
Sat 06:23:32 PM 43.1370 -92.7840 345° North 486 559 30,100 -3,106 Descending FlightAware ADS-B
Sat 06:24:17 PM 43.2350 -92.8210 345° North 481 554 27,800 -2,682 Descending FlightAware ADS-B
Sat 06:24:57 PM 43.3170 -92.8530 344° North 468 539 26,300 -2,400 Descending FlightAware ADS-B
Sat 06:25:42 PM 43.4150 -92.8900 345° North 451 519 24,400 -2,400 Descending FlightAware ADS-B
Sat 06:26:22 PM 43.4930 -92.9200 344° North 439 505 22,900 -2,250 Descending FlightAware ADS-B
Sat 06:27:02 PM 43.5680 -92.9490 344° North 428 493 21,400 -2,329 Descending FlightAware ADS-B
Sat 06:27:47 PM 43.6530 -92.9820 344° North 413 475 19,600 -2,329 Descending FlightAware ADS-B
Sat 06:28:27 PM 43.7270 -93.0100 345° North 402 463 18,100 -2,250 Descending FlightAware ADS-B
Sat 06:29:07 PM 43.7960 -93.0370 344° North 395 455 16,600 -2,259 Descending FlightAware ADS-B
Sat 06:29:52 PM 43.8770 -93.0680 345° North 386 444 14,900 -2,259 Descending FlightAware ADS-B
Sat 06:30:32 PM 43.9470 -93.0950 344° North 378 435 13,400 -2,188 Descending FlightAware ADS-B
Sat 06:31:17 PM 44.0190 -93.1230 344° North 369 425 11,800 -1,835 Descending FlightAware ADS-B
Sat 06:31:57 PM 44.0850 -93.1490 344° North 353 406 10,800 -1,200 Descending FlightAware ADS-B
Sat 06:32:42 PM 44.1580 -93.1780 344° North 356 410 10,100 -494 Descending FlightAware ADS-B
Sat 06:33:22 PM 44.2210 -93.1980 347° North 357 411 10,100  Level FlightAware ADS-B
Sat 06:34:02 PM 44.2880 -93.1960 North 357 411 10,100  Level FlightAware ADS-B
Sat 06:34:47 PM 44.3610 -93.1880 North 362 417 10,100  Level FlightAware ADS-B
Sat 06:35:27 PM 44.4280 -93.1810 North 361 415 10,100  Level FlightAware ADS-B
Sat 06:36:07 PM 44.4950 -93.1740 North 363 418 10,100  Level FlightAware ADS-B
Sat 06:36:52 PM 44.5720 -93.1660 North 362 417 10,100  Level FlightAware ADS-B
Sat 06:37:17 PM 44.6110 -93.1640 North 345 397 10,100 -171 Level FlightAware ADS-B
Sat 06:38:02 PM 44.6750 -93.1920 343° North 294 338 9,900 -514 Descending FlightAware ADS-B
Sat 06:38:27 PM 44.7050 -93.2110 336° Northwest 287 330 9,500 -1,200 Descending FlightAware ADS-B
Sat 06:38:57 PM 44.7420 -93.2340 336° Northwest 287 330 8,800 -1,418 Descending FlightAware ADS-B
Sat 06:39:22 PM 44.7730 -93.2530 336° Northwest 287 330 8,200 -764 Descending FlightAware ADS-B
Sat 06:39:52 PM 44.8090 -93.2760 336° Northwest 287 330 8,100 -100 Descending FlightAware ADS-B
Sat 06:40:22 PM 44.8410 -93.3130 321° Northwest 283 326 8,100 -655 Level FlightAware ADS-B
Sat 06:40:47 PM 44.8570 -93.3480 303° West 266 306 7,500 -2,073 Descending FlightAware ADS-B
Sat 06:41:17 PM 44.8680 -93.3990 287° West 272 313 6,200 -2,400 Descending FlightAware ADS-B
Sat 06:41:32 PM 44.8730 -93.4240 286° West 268 308 5,700 -1,650 Descending FlightAware ADS-B
Sat 06:41:57 PM 44.8810 -93.4640 286° West 257 296 5,100 -1,200 Descending FlightAware ADS-B
Sat 06:42:12 PM 44.8880 -93.4880 292° West 254 292 4,900 -800 Descending FlightAware ADS-B
Sat 06:42:27 PM 44.9000 -93.5040 317° Northwest 253 291 4,700 -600 Descending FlightAware ADS-B
Sat 06:42:42 PM 44.9160 -93.5090 348° North 247 284 4,600 -600 Descending FlightAware ADS-B
Sat 06:43:07 PM 44.9400 -93.4930 25° Northeast 228 262 4,300 -750 Descending FlightAware ADS-B
Sat 06:43:22 PM 44.9460 -93.4730 67° East 213 245 4,100  Descending FlightAware ADS-B
Sat 06:43:47 PM 44.9470 -93.4410 87° East 191 220 4,300 -218 Climbing FlightAware ADS-B
Sat 06:44:17 PM 44.9490 -93.4040 86° East 188 216 3,900 -873 Descending FlightAware ADS-B
Sat 06:44:42 PM 44.9510 -93.3750 84° East 186 214 3,500 -933 Descending FlightAware ADS-B
Sat 06:45:02 PM 44.9450 -93.3530 111° Southeast 177 204 3,200 -933 Descending FlightAware ADS-B
Sat 06:45:27 PM 44.9350 -93.3290 120° Southeast 157 181 2,800 -873 Descending FlightAware ADS-B
Sat 06:45:57 PM 44.9240 -93.3040 122° Southeast 143 165 2,400 -764 Descending FlightAware ADS-B
Sat 06:46:22 PM 44.9160 -93.2840 119° Southeast 144 166 2,100 -655 Descending FlightAware ADS-B
Sat 06:46:52 PM 44.9070 -93.2630 121° Southeast 144 166 1,800 -700 Descending FlightAware ADS-B
Sat 06:47:22 PM 44.8950 -93.2350 121° Southeast 143 165 1,400 -764 Descending FlightAware ADS-B
Sat 06:47:47 PM 44.8860 -93.2150 122° Southeast 139 160 1,100 -720 Descending FlightAware ADS-B

Login

Don't have an account? Register now (free) for customized features, flight alerts, and more!